Time;durP1;ratioP1;P1;durP2;ratioP2;P2;SDS_P1;SDS_P2;PMS_P1;PMS_P2;Temp;Humidity;BMP_temperature;BMP_pressure;BME280_temperature;BME280_humidity;BME280_pressure;Samples;Min_cycle;Max_cycle;Signal;HPM_P1;HPM_P2
2023/03/28 00:00:56;;;;;;;7.13;2.55;;;;;;;-0.43;97.00;100264.00;5098086;28;20589;-60
2023/03/28 00:03:22;;;;;;;13.70;2.83;;;;;;;-0.47;97.07;100270.56;5094783;28;20291;-60
2023/03/28 00:05:48;;;;;;;7.97;2.28;;;;;;;-0.48;97.83;100263.63;5098339;28;20036;-60
2023/03/28 00:08:17;;;;;;;6.65;2.30;;;;;;;-0.47;97.55;100265.28;5098343;28;20410;-60
2023/03/28 00:10:42;;;;;;;6.72;2.30;;;;;;;-0.52;97.46;100278.91;5095774;28;20035;-60
2023/03/28 00:13:08;;;;;;;9.48;2.60;;;;;;;-0.49;97.50;100269.88;5095294;28;20070;-60
2023/03/28 00:15:36;;;;;;;13.77;2.67;;;;;;;-0.49;97.82;100272.50;5102194;28;20034;-60
2023/03/28 00:18:04;;;;;;;7.72;2.45;;;;;;;-0.52;97.43;100283.34;5088224;28;20047;-60
2023/03/28 00:20:30;;;;;;;9.07;2.80;;;;;;;-0.48;97.23;100282.06;5097603;28;20030;-60
2023/03/28 00:22:56;;;;;;;7.13;2.20;;;;;;;-0.51;97.32;100275.28;5096403;28;20042;-60
2023/03/28 00:25:22;;;;;;;8.60;2.10;;;;;;;-0.52;97.52;100284.16;5090391;28;20027;-60
2023/03/28 00:27:47;;;;;;;11.15;2.65;;;;;;;-0.53;97.23;100282.47;5094188;28;20043;-60
2023/03/28 00:30:12;;;;;;;14.93;2.78;;;;;;;-0.53;96.30;100281.66;5094834;28;20028;-60
2023/03/28 00:32:38;;;;;;;7.60;2.47;;;;;;;-0.50;96.45;100287.47;5093845;28;20031;-60
2023/03/28 00:35:04;;;;;;;10.07;2.58;;;;;;;-0.52;96.65;100281.53;5099106;28;20028;-60
2023/03/28 00:37:30;;;;;;;10.15;2.80;;;;;;;-0.56;96.47;100288.06;5101923;28;20126;-60
2023/03/28 00:39:56;;;;;;;7.78;2.55;;;;;;;-0.62;97.07;100285.16;5094814;28;20028;-60
2023/03/28 00:42:22;;;;;;;4.10;2.08;;;;;;;-0.60;96.54;100280.56;5095295;28;20020;-60
2023/03/28 00:44:48;;;;;;;6.75;1.90;;;;;;;-0.57;96.70;100289.03;5089507;28;20113;-60
2023/03/28 00:47:48;;;;;;;6.40;2.10;;;;;;;-0.69;96.84;100284.91;5098342;28;20108;-60
2023/03/28 00:50:22;;;;;;;9.93;3.28;;;;;;;-0.76;97.21;100289.09;5093102;28;20110;-60
2023/03/28 00:53:09;;;;;;;10.95;2.22;;;;;;;-0.80;98.94;100283.31;5092243;28;20058;-60
2023/03/28 00:55:34;;;;;;;8.27;2.45;;;;;;;-0.90;98.55;100285.09;5096070;28;20035;-60
2023/03/28 00:58:00;;;;;;;13.27;2.83;;;;;;;-0.98;99.11;100277.91;5092021;28;20039;-60
2023/03/28 01:00:25;;;;;;;8.32;2.45;;;;;;;-1.00;99.51;100284.28;5099273;28;20034;-60
2023/03/28 01:02:53;;;;;;;9.13;2.28;;;;;;;-1.00;100.00;100279.03;5082166;28;20028;-60
2023/03/28 01:05:22;;;;;;;9.98;2.22;;;;;;;-0.99;100.00;100283.34;5099634;28;20038;-60
2023/03/28 01:07:48;;;;;;;7.75;2.03;;;;;;;-1.04;100.00;100281.13;5079070;28;20482;-60
2023/03/28 01:10:14;;;;;;;10.93;2.38;;;;;;;-1.06;100.00;100279.63;5105362;28;20031;-60
2023/03/28 01:12:40;;;;;;;5.72;1.73;;;;;;;-1.10;100.00;100273.78;5083897;28;20059;-60
2023/03/28 01:15:07;;;;;;;15.70;2.53;;;;;;;-1.08;100.00;100280.56;5089172;28;20116;-60
2023/03/28 01:17:33;;;;;;;10.70;2.33;;;;;;;-1.02;100.00;100281.81;5100118;27;20032;-60
2023/03/28 01:20:07;;;;;;;14.05;2.20;;;;;;;-1.07;100.00;100278.78;5095540;28;20475;-60
2023/03/28 01:22:43;;;;;;;11.88;2.60;;;;;;;-1.01;100.00;100280.84;5099111;28;20124;-60
2023/03/28 01:25:46;;;;;;;7.03;2.08;;;;;;;-0.99;100.00;100288.59;5097144;28;20126;-60
2023/03/28 01:28:25;;;;;;;10.50;2.33;;;;;;;-1.01;100.00;100287.91;5099521;28;20044;-60
2023/03/28 01:31:16;;;;;;;5.57;2.42;;;;;;;-0.97;100.00;100291.94;5099627;28;20545;-60
2023/03/28 01:34:14;;;;;;;8.98;2.35;;;;;;;-0.93;99.91;100288.84;5091158;28;20430;-60
2023/03/28 01:36:55;;;;;;;8.13;2.45;;;;;;;-0.91;100.00;100286.91;5099544;28;20127;-60
2023/03/28 01:39:28;;;;;;;11.73;2.28;;;;;;;-0.82;100.00;100293.13;5097320;28;20258;-60
2023/03/28 01:42:15;;;;;;;11.38;2.75;;;;;;;-0.95;100.00;100295.22;5095965;28;20059;-60
2023/03/28 01:44:44;;;;;;;5.07;2.00;;;;;;;-1.00;100.00;100293.03;5099228;28;20043;-60
2023/03/28 01:47:14;;;;;;;5.00;1.90;;;;;;;-1.04;100.00;100289.03;5099593;28;20494;-60
2023/03/28 01:49:47;;;;;;;10.90;2.80;;;;;;;-1.06;100.00;100290.13;5095847;28;20039;-60
2023/03/28 01:52:20;;;;;;;9.18;2.65;;;;;;;-1.11;100.00;100282.66;5092978;28;20466;-60
2023/03/28 01:55:36;;;;;;;7.88;2.33;;;;;;;-1.09;100.00;100286.00;5099488;28;20484;-60
2023/03/28 01:58:38;;;;;;;16.52;3.00;;;;;;;-1.13;100.00;100281.97;5065488;28;20150;-60
2023/03/28 02:01:14;;;;;;;3.70;1.95;;;;;;;-1.12;100.00;100287.09;5100298;28;20032;-60
2023/03/28 02:03:41;;;;;;;7.35;2.83;;;;;;;-1.16;100.00;100282.25;5082696;28;20020;-60
2023/03/28 02:06:07;;;;;;;9.18;2.40;;;;;;;-1.27;100.00;100278.00;5093280;28;20028;-60
2023/03/28 02:08:33;;;;;;;4.80;2.13;;;;;;;-1.27;100.00;100278.00;5096786;28;20031;-60
2023/03/28 02:10:59;;;;;;;10.82;1.73;;;;;;;-1.25;100.00;100281.28;5095128;28;20678;-60
2023/03/28 02:13:27;;;;;;;6.78;2.42;;;;;;;-1.28;100.00;100281.56;5084383;28;20044;-60
2023/03/28 02:15:55;;;;;;;7.57;2.22;;;;;;;-1.42;100.00;100274.09;5091277;28;20032;-60
2023/03/28 02:18:23;;;;;;;7.93;2.33;;;;;;;-1.43;100.00;100267.19;5092284;28;20100;-60
2023/03/28 02:20:54;;;;;;;6.90;2.42;;;;;;;-1.46;100.00;100270.09;5096202;28;20107;-60
2023/03/28 02:23:21;;;;;;;11.13;2.38;;;;;;;-1.37;100.00;100271.91;5098311;28;20035;-60
2023/03/28 02:25:47;;;;;;;7.13;2.20;;;;;;;-1.31;100.00;100271.34;5066665;28;20048;-60
2023/03/28 02:28:13;;;;;;;12.15;2.80;;;;;;;-1.29;100.00;100263.31;5097435;28;20550;-60
2023/03/28 02:30:38;;;;;;;6.57;2.30;;;;;;;-1.30;100.00;100265.09;5077771;28;20100;-60
2023/03/28 02:33:07;;;;;;;6.80;2.22;;;;;;;-1.35;100.00;100259.44;5095763;28;20043;-60
2023/03/28 02:36:00;;;;;;;12.13;2.50;;;;;;;-1.31;100.00;100266.06;5095472;28;20393;-60
2023/03/28 02:38:46;;;;;;;12.60;2.50;;;;;;;-1.31;100.00;100266.91;5091285;28;20127;-60
2023/03/28 02:41:33;;;;;;;10.93;2.97;;;;;;;-1.31;100.00;100255.56;5100577;28;20035;-60
2023/03/28 02:44:44;;;;;;;5.60;2.15;;;;;;;-1.41;100.00;100252.09;5073916;28;20028;-60
2023/03/28 02:47:13;;;;;;;8.95;2.15;;;;;;;-1.48;100.00;100257.09;5069725;28;20044;-60
2023/03/28 02:49:45;;;;;;;10.73;2.72;;;;;;;-1.36;100.00;100253.34;5100693;28;20024;-60
2023/03/28 02:52:19;;;;;;;6.53;2.90;;;;;;;-1.45;100.00;100263.88;5080234;28;20051;-60
2023/03/28 02:55:11;;;;;;;7.53;3.10;;;;;;;-1.53;100.00;100265.38;5092589;28;20474;-60
2023/03/28 02:57:40;;;;;;;6.55;2.80;;;;;;;-1.53;100.00;100265.38;5090573;28;20524;-60
2023/03/28 03:00:12;;;;;;;6.15;2.70;;;;;;;-1.57;100.00;100263.19;5090689;28;20024;-60
2023/03/28 03:02:46;;;;;;;8.48;2.40;;;;;;;-1.59;100.00;100267.75;5096852;28;20380;-60
2023/03/28 03:05:12;;;;;;;9.55;3.20;;;;;;;-1.58;100.00;100270.22;5083089;28;20028;-60
2023/03/28 03:07:38;;;;;;;9.88;3.30;;;;;;;-1.55;100.00;100269.97;5096898;28;20024;-60
2023/03/28 03:10:08;;;;;;;9.05;2.55;;;;;;;-1.55;100.00;100263.88;5095573;28;20078;-60
2023/03/28 03:12:34;;;;;;;8.38;3.10;;;;;;;-1.62;100.00;100268.88;5102185;28;20070;-60
2023/03/28 03:15:00;;;;;;;6.13;2.50;;;;;;;-1.57;100.00;100266.66;5094532;28;20109;-60
2023/03/28 03:17:26;;;;;;;7.05;2.47;;;;;;;-1.66;100.00;100267.47;5100958;28;20434;-60
2023/03/28 03:19:51;;;;;;;10.55;2.70;;;;;;;-1.70;100.00;100279.22;5095255;28;20047;-60
2023/03/28 03:22:17;;;;;;;7.35;2.38;;;;;;;-1.71;100.00;100268.88;5097678;28;20046;-60
2023/03/28 03:24:43;;;;;;;9.88;2.80;;;;;;;-1.75;100.00;100286.69;5092879;28;20039;-60
2023/03/28 03:27:08;;;;;;;7.95;2.30;;;;;;;-1.76;100.00;100285.88;5098322;28;20027;-60
2023/03/28 03:29:34;;;;;;;11.13;2.85;;;;;;;-1.78;100.00;100284.34;5088381;28;20039;-60
2023/03/28 03:31:59;;;;;;;9.65;2.70;;;;;;;-1.81;100.00;100282.00;5099941;28;20107;-60
2023/03/28 03:34:25;;;;;;;8.18;2.40;;;;;;;-1.77;100.00;100286.03;5100793;28;20027;-60
2023/03/28 03:36:53;;;;;;;9.93;2.67;;;;;;;-1.70;100.00;100281.03;5093324;28;20035;-60
2023/03/28 03:39:19;;;;;;;9.77;2.42;;;;;;;-1.54;100.00;100284.78;5094893;28;20089;-60
2023/03/28 03:41:44;;;;;;;7.35;2.25;;;;;;;-1.70;100.00;100273.97;5100355;28;20091;-60
2023/03/28 03:44:10;;;;;;;14.25;2.47;;;;;;;-1.75;100.00;100282.28;5100870;28;20028;-60
2023/03/28 03:46:35;;;;;;;14.38;2.78;;;;;;;-1.85;100.00;100275.34;5094039;28;20481;-60
2023/03/28 03:49:01;;;;;;;7.78;2.22;;;;;;;-1.92;100.00;100280.34;5092372;28;20035;-60
2023/03/28 03:51:26;;;;;;;8.80;2.67;;;;;;;-1.99;100.00;100281.84;5094978;28;20030;-60
2023/03/28 03:53:52;;;;;;;7.28;2.53;;;;;;;-2.01;100.00;100279.34;5092420;28;20028;-60
2023/03/28 03:56:17;;;;;;;10.68;3.25;;;;;;;-2.04;100.00;100284.88;5099263;28;20063;-60
2023/03/28 03:58:43;;;;;;;11.00;2.95;;;;;;;-2.04;100.00;100287.50;5093617;28;20464;-60
2023/03/28 04:01:12;;;;;;;5.03;2.10;;;;;;;-2.00;100.00;100278.38;5093389;28;20475;-60
2023/03/28 04:03:39;;;;;;;10.33;2.30;;;;;;;-2.01;100.00;100276.69;5099840;28;20073;-60
2023/03/28 04:06:05;;;;;;;8.60;2.17;;;;;;;-2.12;100.00;100281.22;5094599;28;20350;-60
2023/03/28 04:08:31;;;;;;;11.25;2.33;;;;;;;-2.12;100.00;100287.34;5094115;28;20421;-60
2023/03/28 04:10:56;;;;;;;6.18;2.75;;;;;;;-2.16;100.00;100296.44;5096575;28;20736;-60
2023/03/28 04:13:21;;;;;;;4.72;2.08;;;;;;;-2.13;100.00;100290.09;5091620;28;20055;-60
2023/03/28 04:15:47;;;;;;;12.10;3.13;;;;;;;-2.04;100.00;100295.38;5092242;28;20458;-60
2023/03/28 04:18:14;;;;;;;6.30;2.30;;;;;;;-2.10;100.00;100295.91;5095922;28;20301;-60
2023/03/28 04:20:40;;;;;;;9.77;2.53;;;;;;;-2.14;100.00;100310.28;5100569;28;20019;-60
2023/03/28 04:23:07;;;;;;;7.68;2.38;;;;;;;-2.15;100.00;100307.78;5099362;28;20089;-60
2023/03/28 04:25:32;;;;;;;10.52;2.38;;;;;;;-2.26;100.00;100313.97;5094589;28;20114;-60
2023/03/28 04:28:00;;;;;;;4.75;2.40;;;;;;;-2.36;100.00;100305.22;5099497;28;20023;-60
2023/03/28 04:30:26;;;;;;;7.82;2.60;;;;;;;-2.30;100.00;100302.06;5095332;28;20057;-60
2023/03/28 04:32:53;;;;;;;11.07;3.08;;;;;;;-2.38;100.00;100303.56;5097375;28;20085;-60
2023/03/28 04:35:22;;;;;;;9.80;2.88;;;;;;;-2.36;100.00;100300.81;5101617;28;20031;-60
2023/03/28 04:37:48;;;;;;;9.47;2.80;;;;;;;-2.29;100.00;100306.38;5103208;28;20446;-60
2023/03/28 04:40:17;;;;;;;5.97;2.55;;;;;;;-2.35;100.00;100307.72;5104880;28;20820;-60
2023/03/28 04:42:43;;;;;;;7.30;2.33;;;;;;;-2.25;100.00;100307.75;5102608;28;20046;-60
2023/03/28 04:45:08;;;;;;;6.50;2.72;;;;;;;-2.30;100.00;100310.75;5092067;28;20532;-60
2023/03/28 04:47:36;;;;;;;7.97;2.83;;;;;;;-2.26;100.00;100313.97;5099107;28;20107;-60
2023/03/28 04:50:02;;;;;;;8.23;2.92;;;;;;;-2.42;100.00;100317.94;5093722;28;20143;-60
2023/03/28 04:52:27;;;;;;;6.20;3.05;;;;;;;-2.49;100.00;100315.97;5092979;28;20024;-60
2023/03/28 04:54:53;;;;;;;9.02;2.72;;;;;;;-2.49;100.00;100323.84;5097399;28;20044;-60
2023/03/28 04:57:18;;;;;;;8.88;2.88;;;;;;;-2.44;100.00;100325.09;5094307;28;20092;-60
2023/03/28 04:59:43;;;;;;;12.25;2.70;;;;;;;-2.44;100.00;100330.34;5094903;28;20027;-60
2023/03/28 05:02:09;;;;;;;12.48;3.05;;;;;;;-2.30;100.00;100336.19;5097520;28;20508;-60
2023/03/28 05:04:35;;;;;;;7.43;3.40;;;;;;;-2.33;100.00;100341.72;5093222;28;20066;-60
2023/03/28 05:07:01;;;;;;;12.95;2.97;;;;;;;-2.44;100.00;100334.78;5097252;28;20097;-60
2023/03/28 05:09:26;;;;;;;7.85;3.10;;;;;;;-2.29;100.00;100345.75;5101249;27;20486;-60
2023/03/28 05:11:52;;;;;;;6.30;3.05;;;;;;;-2.33;100.00;100352.22;5098864;28;20133;-60
2023/03/28 05:14:17;;;;;;;10.38;3.05;;;;;;;-2.31;100.00;100339.81;5098216;28;20046;-60
2023/03/28 05:16:43;;;;;;;9.55;3.00;;;;;;;-2.38;100.00;100342.13;5102887;28;20028;-60
2023/03/28 05:19:09;;;;;;;9.90;3.50;;;;;;;-2.46;100.00;100337.53;5098869;28;20063;-60
2023/03/28 05:21:35;;;;;;;9.98;3.00;;;;;;;-2.32;100.00;100344.22;5096595;28;20031;-60
2023/03/28 05:24:00;;;;;;;13.73;3.03;;;;;;;-2.34;100.00;100342.69;5096622;28;20089;-60
2023/03/28 05:26:26;;;;;;;15.02;3.55;;;;;;;-2.36;100.00;100344.63;5088076;28;20054;-60
2023/03/28 05:28:52;;;;;;;9.05;5.00;;;;;;;-2.42;100.00;100346.81;5097023;28;20114;-60
2023/03/28 05:31:17;;;;;;;16.58;5.18;;;;;;;-2.22;100.00;100355.59;5095222;28;20156;-60
2023/03/28 05:33:43;;;;;;;8.23;3.25;;;;;;;-2.20;100.00;100344.94;5096291;28;20493;-60
2023/03/28 05:36:09;;;;;;;7.68;3.05;;;;;;;-2.32;100.00;100343.38;5099230;28;20028;-60
2023/03/28 05:38:35;;;;;;;12.25;3.50;;;;;;;-2.35;100.00;100346.28;5096915;27;20030;-60
2023/03/28 05:41:00;;;;;;;13.98;2.88;;;;;;;-2.34;100.00;100342.69;5090816;28;20036;-60
2023/03/28 05:43:25;;;;;;;9.15;3.25;;;;;;;-2.39;100.00;100340.47;5098622;28;20688;-60
2023/03/28 05:45:51;;;;;;;10.50;2.78;;;;;;;-2.33;100.00;100344.34;5095696;28;20404;-60
2023/03/28 05:48:17;;;;;;;9.80;3.38;;;;;;;-2.30;100.00;100346.72;5101609;28;20038;-60
2023/03/28 05:50:43;;;;;;;9.07;3.63;;;;;;;-2.14;100.00;100347.06;5096927;28;20035;-60
2023/03/28 05:53:09;;;;;;;6.38;3.78;;;;;;;-1.73;100.00;100340.78;5101915;28;20031;-60
2023/03/28 05:55:35;;;;;;;8.02;3.13;;;;;;;-0.64;96.45;100352.94;5105059;28;20384;-60
2023/03/28 05:58:00;;;;;;;13.68;3.80;;;;;;;-0.07;91.61;100346.63;5099503;28;20486;-60
2023/03/28 06:00:26;;;;;;;6.78;2.60;;;;;;;0.56;86.93;100345.81;5099587;28;20023;-59
2023/03/28 06:02:53;;;;;;;9.38;2.83;;;;;;;1.35;83.37;100341.53;5097948;28;20028;-59
2023/03/28 06:05:19;;;;;;;11.18;3.38;;;;;;;1.45;81.81;100344.88;5093959;28;20389;-59
2023/03/28 06:07:44;;;;;;;5.18;2.75;;;;;;;2.97;75.50;100344.00;5091976;28;20020;-59
2023/03/28 06:10:11;;;;;;;6.20;2.50;;;;;;;2.13;77.09;100345.88;5089518;28;20467;-59
2023/03/28 06:12:36;;;;;;;8.05;3.35;;;;;;;2.25;77.41;100349.88;5095061;28;20136;-60
2023/03/28 06:15:02;;;;;;;12.55;4.32;;;;;;;1.61;79.59;100348.59;5094536;28;20047;-60
2023/03/28 06:17:27;;;;;;;12.70;4.85;;;;;;;1.89;79.01;100343.94;5101819;28;20047;-59
2023/03/28 06:19:52;;;;;;;6.70;2.85;;;;;;;2.91;75.00;100348.16;5098339;28;20038;-59
2023/03/28 06:22:18;;;;;;;8.38;2.78;;;;;;;3.22;72.34;100350.09;5103312;28;20028;-59
2023/03/28 06:24:43;;;;;;;9.55;2.90;;;;;;;2.69;75.09;100351.44;5096157;28;20413;-59
2023/03/28 06:27:09;;;;;;;4.65;2.28;;;;;;;2.46;75.18;100359.19;5095705;28;20020;-60
2023/03/28 06:29:35;;;;;;;8.77;3.20;;;;;;;1.81;80.01;100365.88;5098927;28;20039;-59
2023/03/28 06:32:00;;;;;;;7.90;4.32;;;;;;;1.99;82.10;100364.97;5093636;28;20041;-59
2023/03/28 06:34:26;;;;;;;7.00;3.20;;;;;;;1.70;80.77;100371.47;5086733;28;20019;-59
2023/03/28 06:36:51;;;;;;;7.00;3.72;;;;;;;1.37;81.54;100370.41;5095951;28;20053;-59
2023/03/28 06:39:16;;;;;;;7.65;3.05;;;;;;;2.25;80.72;100368.38;5096171;28;20035;-59
2023/03/28 06:41:43;;;;;;;10.55;3.45;;;;;;;2.66;80.39;100373.78;5097616;28;20032;-60
2023/03/28 06:44:09;;;;;;;4.82;2.75;;;;;;;3.94;73.56;100381.13;5095575;28;20394;-59
2023/03/28 06:46:34;;;;;;;10.55;3.28;;;;;;;2.36;76.81;100380.47;5095058;28;20026;-59
2023/03/28 06:49:00;;;;;;;8.05;3.95;;;;;;;3.94;74.04;100381.94;5098854;28;20042;-61
2023/03/28 06:51:26;;;;;;;10.75;3.83;;;;;;;4.47;70.69;100388.34;5095245;28;20020;-61
2023/03/28 06:53:51;;;;;;;8.60;3.50;;;;;;;3.22;71.15;100388.06;5090577;28;20019;-60
2023/03/28 06:56:16;;;;;;;7.05;2.75;;;;;;;2.94;75.81;100394.66;5097614;28;20063;-60
2023/03/28 06:58:42;;;;;;;7.13;2.67;;;;;;;3.98;75.37;100398.34;5094918;28;20430;-60
2023/03/28 07:01:08;;;;;;;5.15;2.88;;;;;;;2.17;77.75;100392.16;5098052;28;20459;-61
2023/03/28 07:03:33;;;;;;;9.27;2.90;;;;;;;2.85;76.28;100406.25;5102704;28;20379;-61
2023/03/28 07:06:03;;;;;;;7.60;3.38;;;;;;;3.47;78.68;100398.66;5092422;28;20133;-60
2023/03/28 07:08:28;;;;;;;4.28;2.50;;;;;;;1.90;79.94;100399.31;5096645;28;20422;-60
2023/03/28 07:10:54;;;;;;;2.92;2.05;;;;;;;1.65;81.32;100402.81;5102513;28;20310;-60
2023/03/28 07:13:19;;;;;;;7.07;3.22;;;;;;;2.98;78.48;100399.47;5099208;28;20035;-59
2023/03/28 07:15:45;;;;;;;5.90;2.75;;;;;;;1.74;83.48;100399.22;5093601;28;20028;-60
2023/03/28 07:18:10;;;;;;;10.32;3.50;;;;;;;1.92;82.12;100405.28;5099371;28;20020;-59
2023/03/28 07:20:39;;;;;;;6.13;3.30;;;;;;;2.82;81.18;100396.78;5097852;28;20466;-59
2023/03/28 07:23:05;;;;;;;4.55;2.40;;;;;;;1.62;83.70;100408.38;5096820;28;20024;-61
2023/03/28 07:25:31;;;;;;;11.63;3.20;;;;;;;1.35;86.91;100393.50;5097731;28;20073;-59
2023/03/28 07:27:56;;;;;;;7.13;3.25;;;;;;;2.50;81.36;100403.69;5095168;28;20059;-59
2023/03/28 07:30:22;;;;;;;8.30;3.72;;;;;;;3.79;77.78;100404.84;5100148;28;20027;-60
2023/03/28 07:32:47;;;;;;;6.78;3.72;;;;;;;2.53;81.29;100408.66;5096160;28;20027;-59
2023/03/28 07:35:13;;;;;;;11.02;3.85;;;;;;;2.98;81.19;100404.75;5091815;28;20032;-60
2023/03/28 07:37:38;;;;;;;8.00;3.33;;;;;;;2.38;83.12;100405.78;5097823;28;20019;-61
2023/03/28 07:40:05;;;;;;;15.45;3.92;;;;;;;3.33;81.58;100401.97;5096979;28;20039;-61
2023/03/28 07:42:30;;;;;;;5.40;2.85;;;;;;;2.63;81.05;100403.22;5090074;28;20016;-61
2023/03/28 07:44:55;;;;;;;7.20;3.60;;;;;;;4.38;76.71;100394.69;5098226;28;20027;-58
2023/03/28 07:47:21;;;;;;;12.55;3.53;;;;;;;5.13;72.77;100403.84;5095212;28;20046;-59
2023/03/28 07:49:46;;;;;;;7.25;3.28;;;;;;;3.38;76.79;100408.41;5100876;28;20020;-59
2023/03/28 07:52:12;;;;;;;8.23;3.65;;;;;;;3.49;77.73;100415.19;5099685;28;20101;-61
2023/03/28 07:54:38;;;;;;;6.22;3.45;;;;;;;3.59;77.66;100412.34;5093723;28;20149;-61
2023/03/28 07:57:03;;;;;;;10.20;3.40;;;;;;;2.89;79.85;100413.69;5095000;28;20027;-60
2023/03/28 07:59:29;;;;;;;8.55;2.85;;;;;;;2.48;82.06;100420.72;5095698;28;20483;-61
2023/03/28 08:01:54;;;;;;;6.57;3.60;;;;;;;3.77;79.68;100423.63;5093259;28;20028;-61
2023/03/28 08:04:20;;;;;;;5.65;2.60;;;;;;;2.95;81.64;100417.50;5086575;28;20476;-61
2023/03/28 08:06:46;;;;;;;9.23;3.50;;;;;;;3.49;81.40;100417.00;5087643;28;20081;-61
2023/03/28 08:09:13;;;;;;;9.82;3.45;;;;;;;4.06;80.54;100423.00;5098777;28;20058;-60
2023/03/28 08:11:40;;;;;;;10.55;4.03;;;;;;;3.67;82.34;100426.44;5091362;28;20074;-61
2023/03/28 08:14:08;;;;;;;8.32;3.80;;;;;;;4.72;75.43;100422.75;5098419;28;20427;-60
2023/03/28 08:16:33;;;;;;;8.90;3.92;;;;;;;5.40;72.97;100431.72;5092923;28;20028;-60
2023/03/28 08:18:59;;;;;;;5.40;3.00;;;;;;;3.12;79.74;100429.78;5099323;28;20574;-60
2023/03/28 08:21:26;;;;;;;9.65;3.40;;;;;;;5.34;74.24;100427.97;5102056;28;20031;-60
2023/03/28 08:23:52;;;;;;;9.00;3.55;;;;;;;5.66;74.79;100431.31;5089938;28;20103;-60
2023/03/28 08:26:17;;;;;;;8.10;2.95;;;;;;;5.08;71.89;100438.13;5093680;28;20112;-60
2023/03/28 08:28:43;;;;;;;7.40;3.05;;;;;;;4.95;73.61;100438.69;5096793;28;20031;-61
2023/03/28 08:31:12;;;;;;;8.43;3.60;;;;;;;4.25;77.55;100437.72;5097484;28;20024;-59
2023/03/28 08:33:39;;;;;;;6.60;3.10;;;;;;;4.17;75.89;100434.25;5096094;28;20023;-59
2023/03/28 08:36:05;;;;;;;10.73;3.22;;;;;;;5.15;72.55;100431.91;5089480;28;20367;-59
2023/03/28 08:38:30;;;;;;;10.45;3.35;;;;;;;4.53;77.44;100430.13;5097474;28;20097;-59
2023/03/28 08:41:11;;;;;;;10.57;3.50;;;;;;;5.67;71.97;100427.66;5095052;28;20318;-59
2023/03/28 08:43:51;;;;;;;10.50;3.33;;;;;;;7.47;64.79;100430.63;5092209;28;20100;-60
2023/03/28 08:46:18;;;;;;;8.40;2.67;;;;;;;4.37;74.51;100440.00;5092190;28;20027;-62
2023/03/28 08:48:43;;;;;;;7.75;2.92;;;;;;;4.17;76.18;100436.91;5085191;28;20050;-59
2023/03/28 08:51:26;;;;;;;5.90;2.45;;;;;;;4.31;74.32;100444.16;5099606;28;20028;-60
2023/03/28 08:54:01;;;;;;;9.20;3.15;;;;;;;4.84;70.93;100441.75;5095748;28;20316;-61
2023/03/28 08:56:26;;;;;;;12.52;4.15;;;;;;;6.44;70.16;100445.13;5091879;28;20515;-61
2023/03/28 08:59:07;;;;;;;10.38;2.70;;;;;;;7.37;64.87;100440.00;5077801;28;20498;-61
2023/03/28 09:01:32;;;;;;;8.48;2.95;;;;;;;7.50;62.19;100445.44;5093381;28;20119;-59
2023/03/28 09:03:59;;;;;;;8.23;2.80;;;;;;;6.79;59.90;100445.34;5100490;28;20024;-59
2023/03/28 09:06:43;;;;;;;10.93;3.22;;;;;;;4.75;72.16;100449.78;5092245;28;20024;-60
2023/03/28 09:09:34;;;;;;;8.70;2.95;;;;;;;6.18;64.57;100446.44;5097413;28;20738;-59
2023/03/28 09:12:22;;;;;;;8.27;2.63;;;;;;;5.60;68.35;100448.00;5092364;28;20426;-60
2023/03/28 09:14:53;;;;;;;10.63;2.53;;;;;;;7.05;62.03;100442.97;5093405;28;20028;-59
2023/03/28 09:17:48;;;;;;;13.93;2.95;;;;;;;6.64;60.30;100438.22;5096428;28;20028;-61
2023/03/28 09:20:22;;;;;;;8.05;2.42;;;;;;;6.42;61.96;100447.16;5094715;28;20504;-60
2023/03/28 09:23:00;;;;;;;11.65;2.22;;;;;;;6.77;59.78;100450.06;5092571;28;20425;-59
2023/03/28 09:25:57;;;;;;;6.32;2.20;;;;;;;6.17;59.52;100436.81;5090177;28;20496;-59
2023/03/28 09:28:49;;;;;;;7.03;1.95;;;;;;;5.29;57.61;100440.97;5088738;28;20492;-59
2023/03/28 09:31:14;;;;;;;7.18;1.98;;;;;;;6.68;56.92;100433.34;5095807;28;20316;-59
2023/03/28 09:33:41;;;;;;;6.05;2.05;;;;;;;6.73;58.98;100435.44;5088054;28;20085;-59
2023/03/28 09:36:20;;;;;;;7.72;2.03;;;;;;;6.84;53.04;100424.28;5081777;28;20077;-59
2023/03/28 09:38:50;;;;;;;9.52;1.70;;;;;;;6.25;53.42;100422.56;5095530;28;20094;-59
2023/03/28 09:41:24;;;;;;;7.90;1.95;;;;;;;8.05;51.15;100427.75;5103023;28;20042;-59
2023/03/28 09:43:54;;;;;;;4.40;1.73;;;;;;;6.82;52.67;100426.31;5081159;28;20024;-59
2023/03/28 09:46:30;;;;;;;7.32;1.95;;;;;;;7.99;54.40;100428.53;5078389;28;20052;-59
2023/03/28 09:48:56;;;;;;;6.55;2.20;;;;;;;8.51;49.85;100426.34;5096922;28;20067;-59
2023/03/28 09:51:21;;;;;;;5.53;2.20;;;;;;;7.29;52.66;100419.63;5092259;28;20107;-59
2023/03/28 09:53:47;;;;;;;6.28;1.90;;;;;;;6.99;54.25;100419.75;5096878;28;20023;-59
2023/03/28 09:56:18;;;;;;;7.40;1.80;;;;;;;6.28;56.00;100416.03;5095349;28;20031;-58
2023/03/28 09:58:54;;;;;;;7.10;1.58;;;;;;;6.64;52.86;100413.41;5092579;28;20036;-58
2023/03/28 10:01:43;;;;;;;6.00;1.80;;;;;;;6.99;51.29;100403.75;5091994;28;20028;-60
2023/03/28 10:04:16;;;;;;;5.63;1.73;;;;;;;7.90;52.78;100405.69;5093916;28;20389;-60
2023/03/28 10:06:42;;;;;;;5.40;2.05;;;;;;;8.35;51.06;100406.94;5089597;28;20105;-60
2023/03/28 10:09:14;;;;;;;4.78;1.73;;;;;;;7.76;50.12;100399.44;5092125;28;20094;-60
2023/03/28 10:11:55;;;;;;;4.20;1.40;;;;;;;6.33;50.95;100400.34;5098189;28;20024;-60
2023/03/28 10:14:27;;;;;;;6.20;1.80;;;;;;;8.33;50.59;100402.81;5101228;28;20047;-59
2023/03/28 10:16:52;;;;;;;5.05;1.90;;;;;;;8.88;49.87;100394.81;5096424;28;20081;-60
2023/03/28 10:19:22;;;;;;;9.07;1.80;;;;;;;7.98;52.26;100394.84;5096304;28;20036;-59
2023/03/28 10:21:47;;;;;;;3.38;1.65;;;;;;;6.86;52.08;100380.47;5099655;28;20023;-59
2023/03/28 10:24:14;;;;;;;6.88;1.67;;;;;;;6.70;51.68;100392.16;5078166;28;20028;-59
2023/03/28 10:26:40;;;;;;;5.00;1.90;;;;;;;8.00;51.35;100388.28;5091950;28;20162;-60
2023/03/28 10:29:07;;;;;;;4.13;1.60;;;;;;;7.22;49.99;100384.88;5095200;28;20286;-60
2023/03/28 10:31:32;;;;;;;4.78;1.85;;;;;;;6.52;52.46;100385.63;5078623;28;20031;-60
2023/03/28 10:33:58;;;;;;;6.18;2.15;;;;;;;7.74;51.18;100372.13;5094388;28;20059;-60
2023/03/28 10:36:31;;;;;;;17.92;4.93;;;;;;;7.42;51.63;100373.56;5086316;28;20056;-60
2023/03/28 10:38:56;;;;;;;7.90;2.20;;;;;;;7.51;50.66;100378.56;5095336;28;20032;-58
2023/03/28 10:41:26;;;;;;;5.13;1.80;;;;;;;7.65;51.77;100381.31;5098482;28;20451;-60
2023/03/28 10:43:52;;;;;;;4.55;1.80;;;;;;;7.37;52.27;100363.47;5098981;28;20020;-61
2023/03/28 10:46:22;;;;;;;6.70;2.00;;;;;;;7.22;51.29;100352.88;5097170;28;20065;-61
2023/03/28 10:48:50;;;;;;;6.85;3.25;;;;;;;8.26;50.99;100354.72;5097896;28;20079;-59
2023/03/28 10:51:20;;;;;;;8.13;2.17;;;;;;;5.89;55.07;100346.13;5093622;28;20027;-59
2023/03/28 10:53:49;;;;;;;5.72;2.00;;;;;;;7.10;54.75;100354.41;5073698;28;20016;-59
2023/03/28 10:56:52;;;;;;;4.97;1.88;;;;;;;7.56;50.17;100349.44;5091214;28;20036;-59
2023/03/28 10:59:29;;;;;;;13.50;6.40;;;;;;;8.55;49.82;100342.09;5090093;28;20252;-59
2023/03/28 11:02:23;;;;;;;6.78;1.88;;;;;;;8.40;50.37;100335.06;5095548;28;20363;-59
2023/03/28 11:05:00;;;;;;;13.68;6.03;;;;;;;8.58;49.80;100331.81;5096044;28;20065;-59
2023/03/28 11:07:26;;;;;;;8.10;2.88;;;;;;;8.74;47.95;100330.63;5080627;28;20073;-60
2023/03/28 11:10:04;;;;;;;37.70;18.88;;;;;;;8.57;48.56;100324.84;5091568;28;20043;-59
2023/03/28 11:12:53;;;;;;;25.83;12.40;;;;;;;8.42;48.94;100327.69;5090656;28;20040;-59
2023/03/28 11:15:41;;;;;;;8.70;2.30;;;;;;;7.41;50.98;100324.69;5095151;28;20027;-59
2023/03/28 11:18:14;;;;;;;6.13;1.80;;;;;;;6.74;51.18;100328.69;5095330;28;20118;-59
2023/03/28 11:21:00;;;;;;;20.42;10.68;;;;;;;7.52;51.75;100313.50;5095666;28;20067;-59
2023/03/28 11:23:37;;;;;;;8.75;2.10;;;;;;;7.50;50.23;100312.84;5090949;28;20024;-59
2023/03/28 11:26:09;;;;;;;9.45;4.93;;;;;;;8.45;50.75;100309.59;5098254;28;20456;-59
2023/03/28 11:29:02;;;;;;;13.48;5.50;;;;;;;8.45;50.99;100301.59;5094714;28;20393;-59
2023/03/28 11:32:20;;;;;;;7.80;2.30;;;;;;;6.63;52.36;100292.69;5094232;28;20031;-59
2023/03/28 11:35:26;;;;;;;4.38;2.05;;;;;;;7.33;52.81;100285.66;5059007;28;20028;-59
2023/03/28 11:37:54;;;;;;;4.85;1.83;;;;;;;6.95;52.57;100290.53;5093786;28;20126;-61